sensor_id;sensor_type;location;lat;lon;timestamp;P1;durP1;ratioP1;P2;durP2;ratioP2
43861;SDS011;29510;52.140;5.034;2022-12-18T00:07:42;42.40;;;17.52;;
43861;SDS011;29510;52.140;5.034;2022-12-18T00:17:43;43.28;;;18.48;;
43861;SDS011;29510;52.140;5.034;2022-12-18T00:27:44;34.63;;;16.45;;
43861;SDS011;29510;52.140;5.034;2022-12-18T00:37:45;33.47;;;17.33;;
43861;SDS011;29510;52.140;5.034;2022-12-18T00:47:46;37.90;;;16.10;;
43861;SDS011;29510;52.140;5.034;2022-12-18T00:57:47;30.17;;;15.40;;
43861;SDS011;29510;52.140;5.034;2022-12-18T01:07:48;35.40;;;17.08;;
43861;SDS011;29510;52.140;5.034;2022-12-18T01:17:51;28.55;;;14.48;;
43861;SDS011;29510;52.140;5.034;2022-12-18T01:27:53;35.35;;;17.15;;
43861;SDS011;29510;52.140;5.034;2022-12-18T01:37:54;37.80;;;15.00;;
43861;SDS011;29510;52.140;5.034;2022-12-18T01:47:58;34.05;;;15.80;;
43861;SDS011;29510;52.140;5.034;2022-12-18T01:58:01;34.27;;;16.57;;
43861;SDS011;29510;52.140;5.034;2022-12-18T02:18:50;18.73;;;12.23;;
43861;SDS011;29510;52.140;5.034;2022-12-18T02:28:51;34.53;;;16.45;;
43861;SDS011;29510;52.140;5.034;2022-12-18T02:39:16;30.08;;;13.75;;
43861;SDS011;29510;52.140;5.034;2022-12-18T02:49:36;35.85;;;15.27;;
43861;SDS011;29510;52.140;5.034;2022-12-18T02:59:48;31.93;;;17.17;;
43861;SDS011;29510;52.140;5.034;2022-12-18T03:09:56;30.73;;;14.55;;
43861;SDS011;29510;52.140;5.034;2022-12-18T03:20:12;26.55;;;14.48;;
43861;SDS011;29510;52.140;5.034;2022-12-18T03:51:37;26.83;;;12.75;;
43861;SDS011;29510;52.140;5.034;2022-12-18T04:01:47;20.40;;;12.43;;
43861;SDS011;29510;52.140;5.034;2022-12-18T04:11:51;20.35;;;10.13;;
43861;SDS011;29510;52.140;5.034;2022-12-18T04:21:52;23.15;;;11.90;;
43861;SDS011;29510;52.140;5.034;2022-12-18T04:31:53;25.73;;;12.63;;
43861;SDS011;29510;52.140;5.034;2022-12-18T04:41:54;17.33;;;8.93;;
43861;SDS011;29510;52.140;5.034;2022-12-18T04:51:55;16.20;;;8.60;;
43861;SDS011;29510;52.140;5.034;2022-12-18T05:01:56;25.42;;;12.68;;
43861;SDS011;29510;52.140;5.034;2022-12-18T05:11:57;27.63;;;12.20;;
43861;SDS011;29510;52.140;5.034;2022-12-18T05:21:58;21.50;;;10.18;;
43861;SDS011;29510;52.140;5.034;2022-12-18T05:32:00;16.48;;;9.77;;
43861;SDS011;29510;52.140;5.034;2022-12-18T05:42:01;21.35;;;9.32;;
43861;SDS011;29510;52.140;5.034;2022-12-18T05:52:02;17.35;;;7.07;;
43861;SDS011;29510;52.140;5.034;2022-12-18T06:02:03;15.75;;;7.10;;
43861;SDS011;29510;52.140;5.034;2022-12-18T06:12:04;16.50;;;7.80;;
43861;SDS011;29510;52.140;5.034;2022-12-18T06:22:06;17.40;;;5.85;;
43861;SDS011;29510;52.140;5.034;2022-12-18T06:32:07;11.07;;;6.18;;
43861;SDS011;29510;52.140;5.034;2022-12-18T06:42:08;11.50;;;6.47;;
43861;SDS011;29510;52.140;5.034;2022-12-18T06:52:09;15.70;;;7.07;;
43861;SDS011;29510;52.140;5.034;2022-12-18T07:02:11;15.80;;;5.72;;
43861;SDS011;29510;52.140;5.034;2022-12-18T07:12:13;11.85;;;5.70;;
43861;SDS011;29510;52.140;5.034;2022-12-18T07:22:14;8.95;;;4.68;;
43861;SDS011;29510;52.140;5.034;2022-12-18T07:32:15;11.05;;;5.97;;
43861;SDS011;29510;52.140;5.034;2022-12-18T07:42:16;16.67;;;6.03;;
43861;SDS011;29510;52.140;5.034;2022-12-18T07:52:32;13.57;;;5.88;;
43861;SDS011;29510;52.140;5.034;2022-12-18T08:02:33;14.52;;;6.82;;
43861;SDS011;29510;52.140;5.034;2022-12-18T08:12:34;9.77;;;4.65;;
43861;SDS011;29510;52.140;5.034;2022-12-18T08:22:35;14.32;;;5.63;;
43861;SDS011;29510;52.140;5.034;2022-12-18T08:32:37;11.52;;;5.88;;
43861;SDS011;29510;52.140;5.034;2022-12-18T08:42:38;15.73;;;7.32;;
43861;SDS011;29510;52.140;5.034;2022-12-18T08:52:58;15.50;;;6.97;;
43861;SDS011;29510;52.140;5.034;2022-12-18T09:02:59;10.38;;;5.63;;
43861;SDS011;29510;52.140;5.034;2022-12-18T09:13:00;10.98;;;6.03;;
43861;SDS011;29510;52.140;5.034;2022-12-18T09:23:01;11.52;;;6.30;;
43861;SDS011;29510;52.140;5.034;2022-12-18T09:33:02;10.80;;;6.43;;
43861;SDS011;29510;52.140;5.034;2022-12-18T09:43:04;8.90;;;4.43;;
43861;SDS011;29510;52.140;5.034;2022-12-18T09:53:09;11.68;;;6.63;;
43861;SDS011;29510;52.140;5.034;2022-12-18T10:03:16;11.90;;;7.50;;
43861;SDS011;29510;52.140;5.034;2022-12-18T10:23:45;11.15;;;5.80;;
43861;SDS011;29510;52.140;5.034;2022-12-18T10:34:10;10.50;;;6.22;;
43861;SDS011;29510;52.140;5.034;2022-12-18T10:44:20;12.25;;;6.47;;
43861;SDS011;29510;52.140;5.034;2022-12-18T10:54:23;8.48;;;5.00;;
43861;SDS011;29510;52.140;5.034;2022-12-18T11:04:30;10.88;;;6.18;;
43861;SDS011;29510;52.140;5.034;2022-12-18T11:14:33;12.15;;;5.07;;
43861;SDS011;29510;52.140;5.034;2022-12-18T11:24:42;10.60;;;4.85;;
43861;SDS011;29510;52.140;5.034;2022-12-18T11:34:45;8.55;;;5.93;;
43861;SDS011;29510;52.140;5.034;2022-12-18T11:55:19;7.85;;;5.07;;
43861;SDS011;29510;52.140;5.034;2022-12-18T12:16:28;9.00;;;5.07;;
43861;SDS011;29510;52.140;5.034;2022-12-18T12:26:42;12.00;;;6.35;;
43861;SDS011;29510;52.140;5.034;2022-12-18T12:36:57;10.25;;;5.35;;
43861;SDS011;29510;52.140;5.034;2022-12-18T12:47:06;13.07;;;6.18;;
43861;SDS011;29510;52.140;5.034;2022-12-18T12:57:17;13.70;;;5.88;;
43861;SDS011;29510;52.140;5.034;2022-12-18T13:07:35;10.75;;;5.82;;
43861;SDS011;29510;52.140;5.034;2022-12-18T13:17:41;9.52;;;5.38;;
43861;SDS011;29510;52.140;5.034;2022-12-18T13:27:46;16.55;;;6.05;;
43861;SDS011;29510;52.140;5.034;2022-12-18T13:37:56;11.55;;;6.22;;
43861;SDS011;29510;52.140;5.034;2022-12-18T13:47:57;9.25;;;4.55;;
43861;SDS011;29510;52.140;5.034;2022-12-18T13:58:05;13.43;;;7.55;;
43861;SDS011;29510;52.140;5.034;2022-12-18T14:08:13;8.18;;;5.20;;
43861;SDS011;29510;52.140;5.034;2022-12-18T14:28:43;8.90;;;5.10;;
43861;SDS011;29510;52.140;5.034;2022-12-18T14:38:47;11.30;;;6.17;;
43861;SDS011;29510;52.140;5.034;2022-12-18T14:48:51;9.85;;;5.40;;
43861;SDS011;29510;52.140;5.034;2022-12-18T14:58:54;11.40;;;6.47;;
43861;SDS011;29510;52.140;5.034;2022-12-18T15:08:59;12.90;;;5.13;;
43861;SDS011;29510;52.140;5.034;2022-12-18T15:19:02;13.10;;;5.93;;
43861;SDS011;29510;52.140;5.034;2022-12-18T15:29:03;10.07;;;5.43;;
43861;SDS011;29510;52.140;5.034;2022-12-18T15:39:04;12.00;;;6.18;;
43861;SDS011;29510;52.140;5.034;2022-12-18T15:49:05;10.75;;;5.93;;
43861;SDS011;29510;52.140;5.034;2022-12-18T15:59:10;9.98;;;5.82;;
43861;SDS011;29510;52.140;5.034;2022-12-18T16:19:14;11.70;;;6.35;;
43861;SDS011;29510;52.140;5.034;2022-12-18T16:29:15;12.23;;;7.15;;
43861;SDS011;29510;52.140;5.034;2022-12-18T16:39:16;11.18;;;6.40;;
43861;SDS011;29510;52.140;5.034;2022-12-18T16:49:18;16.40;;;7.45;;
43861;SDS011;29510;52.140;5.034;2022-12-18T16:59:19;18.65;;;6.85;;
43861;SDS011;29510;52.140;5.034;2022-12-18T17:09:20;19.88;;;7.90;;
43861;SDS011;29510;52.140;5.034;2022-12-18T17:19:25;12.60;;;6.80;;
43861;SDS011;29510;52.140;5.034;2022-12-18T17:29:27;14.57;;;7.03;;
43861;SDS011;29510;52.140;5.034;2022-12-18T17:39:28;18.27;;;7.82;;
43861;SDS011;29510;52.140;5.034;2022-12-18T17:49:30;12.15;;;6.68;;
43861;SDS011;29510;52.140;5.034;2022-12-18T17:59:31;9.98;;;5.90;;
43861;SDS011;29510;52.140;5.034;2022-12-18T18:09:32;12.07;;;6.90;;
43861;SDS011;29510;52.140;5.034;2022-12-18T18:19:33;21.33;;;8.93;;
43861;SDS011;29510;52.140;5.034;2022-12-18T18:29:34;15.75;;;8.35;;
43861;SDS011;29510;52.140;5.034;2022-12-18T18:39:35;19.77;;;7.40;;
43861;SDS011;29510;52.140;5.034;2022-12-18T18:49:36;18.08;;;9.68;;
43861;SDS011;29510;52.140;5.034;2022-12-18T18:59:37;14.55;;;7.05;;
43861;SDS011;29510;52.140;5.034;2022-12-18T19:09:39;14.45;;;8.88;;
43861;SDS011;29510;52.140;5.034;2022-12-18T19:19:41;22.42;;;7.03;;
43861;SDS011;29510;52.140;5.034;2022-12-18T19:29:42;11.45;;;6.57;;
43861;SDS011;29510;52.140;5.034;2022-12-18T19:39:43;16.58;;;8.43;;
43861;SDS011;29510;52.140;5.034;2022-12-18T19:49:44;14.95;;;8.75;;
43861;SDS011;29510;52.140;5.034;2022-12-18T19:59:45;20.70;;;8.30;;
43861;SDS011;29510;52.140;5.034;2022-12-18T20:09:46;18.58;;;8.52;;
43861;SDS011;29510;52.140;5.034;2022-12-18T20:19:47;17.02;;;7.93;;
43861;SDS011;29510;52.140;5.034;2022-12-18T20:29:48;17.35;;;9.80;;
43861;SDS011;29510;52.140;5.034;2022-12-18T20:39:49;12.60;;;7.78;;
43861;SDS011;29510;52.140;5.034;2022-12-18T20:49:51;19.13;;;9.93;;
43861;SDS011;29510;52.140;5.034;2022-12-18T20:59:52;20.27;;;10.27;;
43861;SDS011;29510;52.140;5.034;2022-12-18T21:09:53;21.27;;;9.50;;
43861;SDS011;29510;52.140;5.034;2022-12-18T21:19:54;19.55;;;9.38;;
43861;SDS011;29510;52.140;5.034;2022-12-18T21:29:55;20.60;;;10.48;;
43861;SDS011;29510;52.140;5.034;2022-12-18T21:39:56;22.02;;;10.98;;
43861;SDS011;29510;52.140;5.034;2022-12-18T21:49:57;20.95;;;10.30;;
43861;SDS011;29510;52.140;5.034;2022-12-18T21:59:58;21.95;;;10.82;;
43861;SDS011;29510;52.140;5.034;2022-12-18T22:09:59;23.90;;;13.00;;
43861;SDS011;29510;52.140;5.034;2022-12-18T22:20:00;20.50;;;12.00;;
43861;SDS011;29510;52.140;5.034;2022-12-18T22:30:02;24.05;;;12.82;;
43861;SDS011;29510;52.140;5.034;2022-12-18T22:40:04;24.45;;;13.57;;
43861;SDS011;29510;52.140;5.034;2022-12-18T22:50:05;25.15;;;11.85;;
43861;SDS011;29510;52.140;5.034;2022-12-18T23:00:07;24.65;;;13.55;;
43861;SDS011;29510;52.140;5.034;2022-12-18T23:10:08;24.00;;;13.60;;
43861;SDS011;29510;52.140;5.034;2022-12-18T23:20:09;21.90;;;10.60;;
43861;SDS011;29510;52.140;5.034;2022-12-18T23:30:11;25.45;;;14.90;;
43861;SDS011;29510;52.140;5.034;2022-12-18T23:40:12;24.08;;;13.82;;
43861;SDS011;29510;52.140;5.034;2022-12-18T23:50:13;28.88;;;15.05;;
